Time;durP1;ratioP1;P1;durP2;ratioP2;P2;SDS_P1;SDS_P2;PMS_P1;PMS_P2;Temp;Humidity;BMP_temperature;BMP_pressure;BME280_temperature;BME280_humidity;BME280_pressure;Samples;Min_cycle;Max_cycle;Signal;HPM_P1;HPM_P2
2023/06/24 00:00:57;;;;;;;8.85;4.28;;;19.00;99.90;;;;;;5064310;28;20290;-67
2023/06/24 00:03:23;;;;;;;4.23;3.20;;;19.00;99.90;;;;;;5062050;28;20102;-67
2023/06/24 00:05:49;;;;;;;8.17;3.93;;;18.90;99.90;;;;;;5059585;28;20083;-66
2023/06/24 00:08:19;;;;;;;11.48;4.35;;;18.80;99.90;;;;;;5045965;28;20032;-67
2023/06/24 00:10:46;;;;;;;6.63;3.30;;;18.80;99.90;;;;;;5056703;28;20033;-68
2023/06/24 00:13:13;;;;;;;5.95;3.55;;;18.90;99.90;;;;;;5063555;28;20037;-67
2023/06/24 00:15:42;;;;;;;4.82;3.65;;;19.00;99.90;;;;;;5058254;28;20425;-67
2023/06/24 00:18:11;;;;;;;5.43;3.97;;;18.90;99.90;;;;;;5057392;28;20519;-67
2023/06/24 00:20:38;;;;;;;7.18;3.85;;;18.80;99.90;;;;;;5060775;28;20032;-67
2023/06/24 00:23:04;;;;;;;7.22;3.67;;;18.70;99.90;;;;;;5056574;28;20196;-67
2023/06/24 00:25:30;;;;;;;7.38;3.80;;;18.60;99.90;;;;;;5057699;28;20033;-67
2023/06/24 00:27:56;;;;;;;8.93;3.92;;;18.60;99.90;;;;;;5047047;28;20028;-67
2023/06/24 00:30:23;;;;;;;9.70;4.20;;;18.60;99.90;;;;;;5062666;28;20044;-67
2023/06/24 00:32:49;;;;;;;5.22;3.63;;;18.70;99.90;;;;;;5058543;28;20257;-67
2023/06/24 00:35:15;;;;;;;5.07;4.00;;;18.90;99.90;;;;;;5063469;28;20115;-67
2023/06/24 00:37:46;;;;;;;8.18;4.35;;;19.00;99.90;;;;;;5056893;28;20129;-67
2023/06/24 00:40:14;;;;;;;6.50;3.55;;;19.10;99.90;;;;;;5066194;28;20024;-66
2023/06/24 00:42:41;;;;;;;5.32;3.50;;;19.20;99.90;;;;;;5061208;28;20024;-66
2023/06/24 00:45:07;;;;;;;;;;;19.00;99.90;;;;;;5057334;28;20029;-67
2023/06/24 00:47:33;;;;;;;5.50;3.58;;;18.80;99.90;;;;;;5064136;28;19953;-67
2023/06/24 00:49:59;;;;;;;8.07;4.18;;;18.80;99.90;;;;;;5057776;28;20110;-66
2023/06/24 00:52:25;;;;;;;13.00;5.22;;;18.70;99.90;;;;;;5054426;28;20043;-65
2023/06/24 00:54:51;;;;;;;17.37;4.07;;;18.80;99.90;;;;;;5060413;28;20032;-66
2023/06/24 00:57:21;;;;;;;7.33;3.97;;;18.90;99.90;;;;;;5060489;28;20384;-66
2023/06/24 00:59:47;;;;;;;4.70;3.65;;;18.80;99.90;;;;;;5057975;28;20032;-65
2023/06/24 01:02:13;;;;;;;11.52;4.10;;;18.70;99.90;;;;;;5067113;28;20032;-65
2023/06/24 01:04:39;;;;;;;7.93;3.88;;;18.70;99.90;;;;;;5049626;28;20032;-67
2023/06/24 01:07:06;;;;;;;7.75;3.95;;;18.80;99.90;;;;;;5060610;28;20040;-67
2023/06/24 01:09:31;;;;;;;;;;;18.80;99.90;;;;;;5062836;28;20123;-66
2023/06/24 01:11:57;;;;;;;7.72;5.18;;;18.80;99.90;;;;;;5064626;28;20062;-66
2023/06/24 01:14:23;;;;;;;5.63;3.77;;;18.80;99.90;;;;;;5061178;28;20021;-67
2023/06/24 01:16:55;;;;;;;5.32;3.83;;;18.70;99.90;;;;;;5070439;28;20075;-67
2023/06/24 01:19:44;;;;;;;5.65;3.60;;;18.70;99.90;;;;;;5067683;28;20020;-66
2023/06/24 01:22:58;;;;;;;5.43;3.78;;;18.60;99.90;;;;;;5062163;28;20463;-67
2023/06/24 01:25:42;;;;;;;7.28;3.72;;;18.60;99.90;;;;;;5009514;28;20089;-67
2023/06/24 01:28:36;;;;;;;9.00;4.30;;;18.60;99.90;;;;;;5064034;28;20025;-67
2023/06/24 01:31:32;;;;;;;4.90;3.63;;;18.60;99.90;;;;;;5064603;28;20047;-67
2023/06/24 01:33:59;;;;;;;7.15;4.22;;;18.50;99.90;;;;;;5064681;28;20545;-68
2023/06/24 01:36:27;;;;;;;8.73;4.40;;;18.40;99.90;;;;;;5062410;28;20020;-67
2023/06/24 01:38:58;;;;;;;5.85;3.75;;;18.10;99.90;;;;;;5063270;28;20064;-66
2023/06/24 01:41:26;;;;;;;6.10;4.30;;;18.30;99.90;;;;;;5064166;28;20055;-66
2023/06/24 01:43:53;;;;;;;7.10;4.22;;;18.20;99.90;;;;;;5065641;28;20021;-66
2023/06/24 01:46:24;;;;;;;6.28;4.13;;;18.30;99.90;;;;;;5064996;28;20038;-66
2023/06/24 01:48:54;;;;;;;7.63;3.67;;;18.40;99.90;;;;;;5062451;28;20016;-67
2023/06/24 01:51:22;;;;;;;7.20;4.28;;;18.40;99.90;;;;;;5061579;28;20056;-67
2023/06/24 01:54:05;;;;;;;9.27;4.38;;;18.40;99.90;;;;;;5057968;28;20016;-67
2023/06/24 01:56:34;;;;;;;5.30;3.75;;;18.40;99.90;;;;;;5067672;28;20511;-67
2023/06/24 01:59:01;;;;;;;6.72;4.18;;;18.40;99.90;;;;;;5047602;28;20032;-68
2023/06/24 02:01:28;;;;;;;6.50;4.25;;;18.40;99.90;;;;;;5055827;28;20116;-66
2023/06/24 02:03:55;;;;;;;10.07;4.28;;;18.40;99.90;;;;;;5050758;28;20119;-67
2023/06/24 02:06:24;;;;;;;6.90;3.92;;;18.30;99.90;;;;;;5066161;28;20021;-67
2023/06/24 02:08:51;;;;;;;6.07;3.95;;;18.20;99.90;;;;;;5061716;28;20123;-68
2023/06/24 02:11:18;;;;;;;7.38;4.53;;;18.20;99.90;;;;;;5064135;28;20037;-67
2023/06/24 02:13:44;;;;;;;5.82;4.30;;;18.30;99.90;;;;;;5061710;28;20052;-67
2023/06/24 02:16:10;;;;;;;8.80;4.65;;;18.30;99.90;;;;;;5062250;28;20040;-67
2023/06/24 02:18:42;;;;;;;6.55;4.30;;;18.30;99.90;;;;;;5060581;28;20021;-67
2023/06/24 02:21:08;;;;;;;7.07;4.20;;;18.30;99.90;;;;;;5064624;28;20029;-67
2023/06/24 02:23:36;;;;;;;8.13;4.68;;;18.20;99.90;;;;;;5064185;28;20597;-67
2023/06/24 02:26:03;;;;;;;6.40;3.85;;;18.00;99.90;;;;;;5060347;28;20037;-67
2023/06/24 02:28:30;;;;;;;9.90;4.07;;;17.80;99.90;;;;;;5062651;28;20036;-67
2023/06/24 02:30:57;;;;;;;15.27;4.40;;;17.70;99.90;;;;;;5063824;28;20477;-67
2023/06/24 02:33:23;;;;;;;6.45;3.83;;;17.70;99.90;;;;;;5059132;28;20097;-68
2023/06/24 02:35:48;;;;;;;7.67;4.77;;;17.60;99.90;;;;;;5064470;28;20404;-68
2023/06/24 02:38:14;;;;;;;13.30;4.57;;;17.40;99.90;;;;;;5063504;28;20052;-67
2023/06/24 02:40:39;;;;;;;8.67;4.30;;;17.40;99.90;;;;;;5040902;28;20478;-67
2023/06/24 02:43:05;;;;;;;8.13;4.87;;;17.30;99.90;;;;;;5064677;28;20064;-67
2023/06/24 02:45:31;;;;;;;9.60;4.83;;;17.30;99.90;;;;;;5062716;28;20491;-68
2023/06/24 02:47:58;;;;;;;7.82;4.35;;;17.30;99.90;;;;;;5065017;28;20036;-67
2023/06/24 02:50:25;;;;;;;16.60;5.47;;;17.30;99.90;;;;;;5062244;28;20029;-67
2023/06/24 02:52:52;;;;;;;9.20;4.75;;;17.00;99.90;;;;;;5060699;28;20028;-67
2023/06/24 02:55:18;;;;;;;5.78;4.38;;;16.90;99.90;;;;;;5058362;28;20031;-66
2023/06/24 02:57:44;;;;;;;7.80;4.75;;;16.80;99.90;;;;;;5060110;28;20024;-67
2023/06/24 03:00:14;;;;;;;7.57;4.68;;;16.70;99.90;;;;;;5063072;28;20029;-67
2023/06/24 03:02:43;;;;;;;8.75;4.50;;;16.40;99.90;;;;;;5060423;28;20035;-67
2023/06/24 03:05:10;;;;;;;12.40;4.30;;;16.10;99.90;;;;;;5063144;28;20090;-66
2023/06/24 03:07:37;;;;;;;8.73;4.68;;;16.00;99.90;;;;;;5056448;28;20056;-67
2023/06/24 03:10:05;;;;;;;6.82;4.45;;;15.90;99.90;;;;;;5057776;28;20048;-66
2023/06/24 03:12:31;;;;;;;8.00;5.13;;;15.80;99.90;;;;;;5047440;28;20443;-67
2023/06/24 03:14:57;;;;;;;;;;;15.80;99.90;;;;;;5060481;28;20029;-67
2023/06/24 03:17:24;;;;;;;7.95;4.65;;;16.10;99.90;;;;;;5060994;28;19953;-70
2023/06/24 03:19:50;;;;;;;14.27;5.43;;;16.30;99.90;;;;;;5066685;28;20043;-66
2023/06/24 03:22:17;;;;;;;10.77;5.40;;;15.90;99.90;;;;;;5044246;28;20021;-68
2023/06/24 03:24:42;;;;;;;9.25;5.00;;;15.80;99.90;;;;;;5060787;28;20698;-67
2023/06/24 03:27:08;;;;;;;9.30;5.20;;;15.60;99.90;;;;;;5065158;28;20103;-68
2023/06/24 03:29:33;;;;;;;7.47;5.40;;;15.60;99.90;;;;;;5063747;28;20036;-67
2023/06/24 03:31:59;;;;;;;12.17;4.80;;;15.60;99.90;;;;;;5066937;28;20044;-67
2023/06/24 03:34:26;;;;;;;9.43;5.60;;;15.70;99.90;;;;;;5067154;28;20024;-66
2023/06/24 03:36:54;;;;;;;10.82;5.15;;;15.60;99.90;;;;;;5066064;28;20040;-67
2023/06/24 03:39:20;;;;;;;8.75;5.18;;;15.50;99.90;;;;;;5065129;28;20116;-67
2023/06/24 03:41:46;;;;;;;15.73;5.63;;;15.70;99.90;;;;;;5062378;28;20061;-67
2023/06/24 03:44:12;;;;;;;7.18;5.50;;;15.50;99.90;;;;;;5057363;28;20535;-69
2023/06/24 03:46:37;;;;;;;7.22;5.43;;;15.50;99.90;;;;;;5054801;28;20539;-69
2023/06/24 03:49:03;;;;;;;7.60;5.60;;;15.50;99.90;;;;;;5060831;28;20060;-67
2023/06/24 03:51:29;;;;;;;8.40;4.80;;;15.50;99.90;;;;;;5059580;28;20037;-69
2023/06/24 03:53:55;;;;;;;8.27;5.53;;;15.70;99.90;;;;;;5052474;28;20024;-68
2023/06/24 03:56:20;;;;;;;8.17;4.63;;;15.80;99.90;;;;;;5056697;28;20464;-69
2023/06/24 03:58:46;;;;;;;7.30;4.20;;;15.90;99.90;;;;;;5060796;28;20760;-68
2023/06/24 04:01:11;;;;;;;8.00;5.17;;;16.00;99.90;;;;;;5045741;28;20051;-68
2023/06/24 04:03:37;;;;;;;15.00;5.73;;;15.40;99.90;;;;;;5060928;28;20052;-69
2023/06/24 04:06:03;;;;;;;4.90;4.30;;;15.40;99.90;;;;;;5055490;28;20436;-67
2023/06/24 04:08:31;;;;;;;9.37;6.57;;;15.60;99.90;;;;;;5060949;28;20028;-69
2023/06/24 04:11:03;;;;;;;9.63;5.20;;;15.90;99.90;;;;;;5061383;28;20035;-68
2023/06/24 04:13:29;;;;;;;10.02;5.68;;;15.40;99.90;;;;;;5056566;28;20452;-68
2023/06/24 04:15:54;;;;;;;9.70;5.47;;;15.20;99.90;;;;;;5061551;28;20032;-69
2023/06/24 04:18:20;;;;;;;7.53;4.97;;;15.20;99.90;;;;;;5058235;28;20819;-69
2023/06/24 04:20:46;;;;;;;8.73;4.87;;;15.20;99.90;;;;;;5062996;28;20151;-69
2023/06/24 04:23:14;;;;;;;9.63;4.43;;;15.30;99.90;;;;;;5042267;28;20094;-67
2023/06/24 04:25:40;;;;;;;6.53;4.88;;;15.30;99.90;;;;;;5056532;28;20045;-69
2023/06/24 04:28:05;;;;;;;6.13;5.10;;;15.60;99.90;;;;;;5059553;28;20093;-68
2023/06/24 04:30:32;;;;;;;8.53;5.03;;;15.60;99.90;;;;;;5060116;28;20385;-66
2023/06/24 04:32:57;;;;;;;5.88;4.18;;;15.70;99.90;;;;;;5064506;28;20024;-66
2023/06/24 04:35:24;;;;;;;7.73;4.90;;;15.60;99.90;;;;;;5057873;28;20032;-69
2023/06/24 04:37:50;;;;;;;8.27;4.90;;;15.70;99.90;;;;;;5058008;28;20028;-68
2023/06/24 04:40:19;;;;;;;8.40;5.17;;;15.80;99.90;;;;;;5060518;28;20553;-69
2023/06/24 04:42:47;;;;;;;8.57;5.55;;;15.80;99.90;;;;;;5060474;28;20036;-68
2023/06/24 04:45:13;;;;;;;10.02;5.68;;;15.80;99.90;;;;;;5053361;28;20047;-67
2023/06/24 04:47:39;;;;;;;6.27;5.10;;;15.80;99.90;;;;;;5058170;28;20504;-69
2023/06/24 04:50:05;;;;;;;11.23;5.17;;;15.90;99.90;;;;;;5061017;28;20790;-68
2023/06/24 04:52:31;;;;;;;7.65;5.40;;;15.40;99.90;;;;;;5057784;28;20048;-68
2023/06/24 04:54:56;;;;;;;7.00;5.70;;;15.20;99.90;;;;;;5059455;28;20033;-67
2023/06/24 04:57:30;;;;;;;9.77;5.10;;;15.50;99.90;;;;;;5061578;28;20021;-68
2023/06/24 04:59:57;;;;;;;10.02;4.72;;;15.60;99.90;;;;;;5056817;28;20029;-66
2023/06/24 05:02:23;;;;;;;;;;;15.70;99.90;;;;;;5057870;28;20488;-67
2023/06/24 05:04:49;;;;;;;12.75;6.00;;;15.80;99.90;;;;;;5056154;28;19942;-68
2023/06/24 05:07:15;;;;;;;6.65;4.93;;;15.90;99.90;;;;;;5058989;28;20036;-67
2023/06/24 05:09:40;;;;;;;10.38;5.35;;;15.90;99.90;;;;;;5060591;28;20032;-67
2023/06/24 05:12:07;;;;;;;10.47;5.37;;;16.00;99.90;;;;;;5056032;28;20495;-66
2023/06/24 05:14:36;;;;;;;10.90;4.93;;;16.30;99.90;;;;;;5058921;28;20028;-66
2023/06/24 05:17:03;;;;;;;11.13;5.13;;;16.60;99.90;;;;;;5057329;28;20504;-67
2023/06/24 05:19:29;;;;;;;;;;;16.60;99.90;;;;;;5061318;28;20024;-68
2023/06/24 05:21:55;;;;;;;10.57;4.78;;;16.70;99.90;;;;;;5061421;28;19912;-67
2023/06/24 05:24:20;;;;;;;14.88;4.75;;;17.30;99.90;;;;;;5058155;28;20542;-68
2023/06/24 05:26:49;;;;;;;9.33;4.97;;;17.30;99.90;;;;;;5057169;28;20044;-68
2023/06/24 05:29:14;;;;;;;9.23;4.97;;;17.40;99.90;;;;;;5057561;28;20060;-68
2023/06/24 05:31:41;;;;;;;7.57;5.13;;;17.50;99.90;;;;;;5060001;28;20071;-68
2023/06/24 05:34:07;;;;;;;6.60;4.45;;;18.20;99.90;;;;;;5055298;28;20017;-68
2023/06/24 05:36:32;;;;;;;5.65;4.97;;;18.10;99.90;;;;;;5057861;28;20029;-70
2023/06/24 05:38:58;;;;;;;13.33;5.10;;;18.40;99.90;;;;;;5054672;28;20071;-70
2023/06/24 05:41:23;;;;;;;12.00;4.43;;;18.80;99.90;;;;;;5061178;28;20064;-69
2023/06/24 05:44:03;;;;;;;6.90;4.50;;;19.10;99.90;;;;;;5055919;28;20101;-70
2023/06/24 05:46:29;;;;;;;7.25;4.45;;;19.90;99.90;;;;;;5060341;28;20722;-69
2023/06/24 05:48:55;;;;;;;6.17;4.50;;;21.00;99.60;;;;;;5057740;28;20028;-69
2023/06/24 05:51:20;;;;;;;8.87;4.70;;;21.40;98.70;;;;;;5066054;28;20033;-70
2023/06/24 05:53:46;;;;;;;4.97;4.10;;;22.80;96.40;;;;;;5062837;28;20055;-69
2023/06/24 05:56:11;;;;;;;6.40;4.60;;;24.10;92.10;;;;;;5061039;28;20032;-69
2023/06/24 05:58:37;;;;;;;5.87;4.33;;;24.80;88.60;;;;;;5065627;28;20031;-69
2023/06/24 06:01:03;;;;;;;8.10;4.23;;;25.40;87.70;;;;;;5065578;28;20496;-69
2023/06/24 06:03:28;;;;;;;5.13;4.10;;;26.00;81.70;;;;;;5065900;28;20044;-69
2023/06/24 06:05:54;;;;;;;5.50;4.47;;;26.10;80.90;;;;;;5062631;28;20393;-69
2023/06/24 06:08:19;;;;;;;6.65;3.80;;;26.80;77.60;;;;;;5061453;28;20054;-69
2023/06/24 06:10:45;;;;;;;8.50;4.43;;;27.20;76.50;;;;;;5066385;28;20534;-69
2023/06/24 06:13:12;;;;;;;6.50;4.18;;;27.40;74.70;;;;;;5063674;28;20024;-70
2023/06/24 06:15:37;;;;;;;6.22;3.63;;;28.10;72.70;;;;;;5060386;28;20108;-69
2023/06/24 06:18:03;;;;;;;6.60;3.90;;;27.90;71.20;;;;;;5062553;28;20497;-69
2023/06/24 06:20:29;;;;;;;9.77;4.93;;;28.50;70.70;;;;;;5061523;28;20211;-70
2023/06/24 06:22:54;;;;;;;7.50;3.78;;;28.80;68.90;;;;;;5064400;28;20460;-71
2023/06/24 06:25:20;;;;;;;10.35;4.60;;;28.80;68.60;;;;;;5063133;28;20086;-70
2023/06/24 06:27:45;;;;;;;8.25;4.25;;;29.20;67.80;;;;;;5059333;28;20032;-69
2023/06/24 06:30:12;;;;;;;20.40;5.22;;;29.60;67.40;;;;;;5060941;28;20040;-69
2023/06/24 06:32:37;;;;;;;4.43;3.72;;;30.10;65.20;;;;;;5061816;28;20041;-70
2023/06/24 06:35:03;;;;;;;12.27;5.38;;;30.50;64.70;;;;;;5042588;28;20397;-71
2023/06/24 06:37:29;;;;;;;6.05;3.58;;;30.60;63.60;;;;;;5061690;28;20040;-70
2023/06/24 06:39:55;;;;;;;;;;;30.40;61.20;;;;;;5055102;28;20399;-71
2023/06/24 06:42:20;;;;;;;31.83;8.63;;;30.10;62.10;;;;;;5049932;28;19912;-70
2023/06/24 06:44:46;;;;;;;17.98;6.22;;;29.10;65.30;;;;;;5062555;28;20029;-70
2023/06/24 06:47:12;;;;;;;;;;;28.70;65.90;;;;;;5060881;28;20608;-70
2023/06/24 06:49:37;;;;;;;33.50;9.55;;;27.20;67.80;;;;;;5058947;28;19913;-70
2023/06/24 06:52:03;;;;;;;50.03;13.25;;;27.20;69.70;;;;;;5063106;28;20058;-70
2023/06/24 06:54:29;;;;;;;22.98;7.80;;;28.30;69.00;;;;;;5060198;28;20532;-70
2023/06/24 06:56:55;;;;;;;5.65;3.97;;;30.10;64.40;;;;;;5059901;28;20090;-70
2023/06/24 06:59:21;;;;;;;11.10;4.80;;;30.90;61.90;;;;;;5057934;28;20039;-69
2023/06/24 07:01:47;;;;;;;19.17;7.05;;;31.30;61.90;;;;;;5058800;28;20039;-70
2023/06/24 07:04:13;;;;;;;17.40;6.35;;;32.00;59.60;;;;;;5059139;28;20484;-70
2023/06/24 07:06:38;;;;;;;13.50;5.35;;;31.30;60.70;;;;;;5056514;28;20057;-70
2023/06/24 07:09:04;;;;;;;;;;;30.10;62.70;;;;;;5057688;28;20560;-70
2023/06/24 07:11:29;;;;;;;8.55;4.75;;;29.80;61.70;;;;;;5057039;28;19920;-70
2023/06/24 07:13:55;;;;;;;12.50;5.40;;;30.00;62.40;;;;;;5055752;28;20032;-70
2023/06/24 07:16:20;;;;;;;7.07;4.32;;;28.00;64.50;;;;;;5062464;28;20044;-70
2023/06/24 07:18:47;;;;;;;8.38;4.45;;;27.10;68.20;;;;;;5063501;28;20048;-70
2023/06/24 07:21:13;;;;;;;7.25;4.55;;;26.00;70.60;;;;;;5063652;28;20074;-69
2023/06/24 07:23:38;;;;;;;6.05;4.70;;;25.40;71.30;;;;;;5060917;28;20086;-70
2023/06/24 07:26:04;;;;;;;5.68;4.15;;;25.40;73.20;;;;;;5066974;28;20028;-70
2023/06/24 07:28:29;;;;;;;6.40;4.65;;;24.90;73.70;;;;;;5060747;28;20033;-70
2023/06/24 07:30:55;;;;;;;9.02;4.85;;;24.60;74.30;;;;;;5059309;28;20093;-70
2023/06/24 07:33:21;;;;;;;6.38;4.32;;;24.30;76.50;;;;;;5057562;28;20040;-71
2023/06/24 07:35:46;;;;;;;5.80;3.92;;;24.10;76.60;;;;;;5059450;28;20028;-70
2023/06/24 07:38:12;;;;;;;7.03;4.03;;;23.80;78.70;;;;;;5064770;28;20048;-69
2023/06/24 07:40:37;;;;;;;5.78;4.22;;;23.90;80.60;;;;;;5061751;28;20034;-70
2023/06/24 07:43:03;;;;;;;17.05;5.82;;;23.80;82.30;;;;;;5064321;28;20393;-70
2023/06/24 07:45:28;;;;;;;6.47;5.03;;;23.60;81.50;;;;;;5060487;28;20218;-70
2023/06/24 07:47:54;;;;;;;7.80;4.53;;;23.80;82.00;;;;;;5053312;28;20025;-69
2023/06/24 07:50:20;;;;;;;6.37;4.60;;;23.80;81.00;;;;;;5061262;28;20298;-70
2023/06/24 07:52:45;;;;;;;9.10;5.05;;;23.60;80.90;;;;;;5062583;28;20059;-70
2023/06/24 07:55:11;;;;;;;6.93;5.37;;;23.50;82.30;;;;;;5061088;28;20557;-69
2023/06/24 07:57:36;;;;;;;11.57;4.38;;;23.50;81.60;;;;;;5045928;28;20038;-70
2023/06/24 08:00:03;;;;;;;6.78;4.65;;;23.50;80.50;;;;;;5063993;28;20024;-69
2023/06/24 08:02:28;;;;;;;6.25;4.00;;;23.30;81.80;;;;;;5064000;28;20094;-70
2023/06/24 08:04:54;;;;;;;4.97;4.20;;;23.50;83.00;;;;;;5063177;28;20033;-70
2023/06/24 08:07:20;;;;;;;7.68;4.55;;;23.40;82.00;;;;;;5059109;28;20037;-70
2023/06/24 08:09:46;;;;;;;5.22;4.00;;;23.40;82.40;;;;;;5057989;28;20075;-69
2023/06/24 08:12:11;;;;;;;10.97;4.23;;;23.20;82.40;;;;;;5059494;28;20059;-69
2023/06/24 08:14:37;;;;;;;8.80;4.30;;;23.30;82.40;;;;;;5062537;28;20103;-70
2023/06/24 08:17:03;;;;;;;16.53;5.80;;;23.90;81.70;;;;;;5061640;28;20070;-69
2023/06/24 08:19:28;;;;;;;225.57;29.73;;;26.20;74.80;;;;;;5055516;28;20554;-69
2023/06/24 08:21:54;;;;;;;19.47;6.20;;;29.10;66.80;;;;;;5062880;28;20037;-69
2023/06/24 08:24:20;;;;;;;35.83;7.30;;;27.20;67.40;;;;;;5061299;28;20037;-69
2023/06/24 08:26:45;;;;;;;20.30;6.00;;;30.00;65.90;;;;;;5058212;28;20028;-70
2023/06/24 08:29:11;;;;;;;7.00;4.50;;;30.90;61.60;;;;;;5059755;28;20024;-69
2023/06/24 08:31:37;;;;;;;15.05;6.53;;;30.80;61.50;;;;;;5061784;28;20423;-70
2023/06/24 08:34:02;;;;;;;10.38;5.15;;;29.60;64.40;;;;;;5060626;28;20059;-70
2023/06/24 08:36:29;;;;;;;12.73;5.22;;;27.50;66.00;;;;;;5063956;28;20126;-70
2023/06/24 08:38:55;;;;;;;7.78;4.22;;;26.80;70.20;;;;;;5058144;28;20766;-70
2023/06/24 08:41:22;;;;;;;11.55;5.03;;;26.30;69.90;;;;;;5043992;28;20057;-70
2023/06/24 08:43:47;;;;;;;22.67;5.82;;;27.80;69.20;;;;;;5059192;28;20055;-69
2023/06/24 08:46:17;;;;;;;8.63;4.60;;;29.20;65.40;;;;;;5061072;28;20468;-70
2023/06/24 08:48:45;;;;;;;6.10;4.47;;;28.00;67.30;;;;;;5042330;28;20033;-70
2023/06/24 08:51:15;;;;;;;13.18;4.90;;;27.00;69.70;;;;;;5060241;28;20036;-69
2023/06/24 08:53:43;;;;;;;7.93;5.18;;;26.80;70.70;;;;;;5061657;28;20363;-70
2023/06/24 08:56:09;;;;;;;10.90;4.95;;;26.80;71.20;;;;;;5056838;28;20025;-70
2023/06/24 08:58:35;;;;;;;;;;;30.20;65.50;;;;;;5038669;28;20021;-69
2023/06/24 09:01:02;;;;;;;14.98;4.75;;;33.80;59.20;;;;;;5061168;28;19954;-70
2023/06/24 09:03:28;;;;;;;9.50;4.90;;;36.60;54.00;;;;;;5059766;28;20525;-70
2023/06/24 09:05:53;;;;;;;7.53;5.63;;;38.10;51.60;;;;;;5061444;28;20108;-70
2023/06/24 09:08:21;;;;;;;4.15;3.75;;;38.90;50.10;;;;;;5057073;28;20610;-70
2023/06/24 09:10:53;;;;;;;5.15;4.30;;;39.60;48.40;;;;;;5062798;28;20064;-70
2023/06/24 09:13:19;;;;;;;6.60;4.47;;;39.90;47.10;;;;;;5058217;28;20340;-70
2023/06/24 09:15:44;;;;;;;;;;;41.10;46.90;;;;;;5043058;28;20499;-71
2023/06/24 09:18:10;;;;;;;10.55;4.32;;;41.20;44.20;;;;;;5060909;28;19908;-71
2023/06/24 09:20:44;;;;;;;7.35;4.07;;;42.00;45.40;;;;;;5044915;28;20549;-70
2023/06/24 09:23:10;;;;;;;6.63;3.50;;;42.10;45.40;;;;;;5063144;28;20043;-69
2023/06/24 09:25:36;;;;;;;5.55;3.85;;;42.70;44.20;;;;;;5048630;28;20020;-69
2023/06/24 09:28:02;;;;;;;12.70;4.88;;;42.70;43.50;;;;;;5063115;28;20101;-69
2023/06/24 09:30:29;;;;;;;11.65;4.65;;;43.00;43.80;;;;;;5047080;28;20801;-69
2023/06/24 09:32:55;;;;;;;8.52;4.32;;;41.30;44.70;;;;;;5064479;28;20028;-70
2023/06/24 09:35:23;;;;;;;8.73;5.05;;;42.40;44.00;;;;;;5065342;28;20048;-68
2023/06/24 09:37:56;;;;;;;15.68;6.90;;;42.00;44.10;;;;;;5049457;28;20028;-68
2023/06/24 09:40:22;;;;;;;6.53;3.67;;;43.00;42.80;;;;;;5065413;28;20047;-67
2023/06/24 09:42:52;;;;;;;17.48;7.30;;;41.70;42.80;;;;;;5062363;28;20056;-67
2023/06/24 09:45:28;;;;;;;14.82;7.82;;;42.40;43.40;;;;;;5064549;28;20024;-67
2023/06/24 09:47:55;;;;;;;12.70;5.38;;;41.50;42.50;;;;;;5051663;28;20419;-69
2023/06/24 09:50:21;;;;;;;6.50;4.00;;;42.30;44.70;;;;;;5064233;28;20481;-69
2023/06/24 09:52:49;;;;;;;5.25;3.40;;;42.40;43.90;;;;;;5062010;28;20035;-69
2023/06/24 09:55:17;;;;;;;12.23;6.22;;;41.90;44.40;;;;;;5045812;28;20419;-68
2023/06/24 09:57:46;;;;;;;11.70;6.50;;;43.70;43.60;;;;;;5062365;28;20040;-70
2023/06/24 10:00:17;;;;;;;7.55;3.20;;;45.00;43.00;;;;;;5060649;28;20039;-70
2023/06/24 10:02:44;;;;;;;17.33;6.70;;;44.50;41.50;;;;;;5062948;28;20520;-67
2023/06/24 10:05:11;;;;;;;10.75;6.43;;;44.20;42.20;;;;;;5062532;28;20423;-69
2023/06/24 10:07:38;;;;;;;5.32;3.60;;;44.50;42.90;;;;;;5062809;28;20111;-69
2023/06/24 10:10:04;;;;;;;6.85;3.78;;;43.00;42.30;;;;;;5063831;28;20507;-67
2023/06/24 10:12:31;;;;;;;4.22;3.55;;;43.20;42.80;;;;;;5062821;28;20098;-68
2023/06/24 10:14:58;;;;;;;8.73;4.03;;;43.00;41.30;;;;;;5043423;28;20066;-68
2023/06/24 10:17:24;;;;;;;5.60;3.55;;;44.00;42.20;;;;;;5058893;28;20108;-68
2023/06/24 10:19:53;;;;;;;6.18;4.00;;;45.40;42.10;;;;;;5065399;28;20111;-68
2023/06/24 10:22:23;;;;;;;9.30;4.13;;;43.60;41.10;;;;;;5061444;28;20038;-68
2023/06/24 10:24:50;;;;;;;9.48;4.15;;;40.00;45.40;;;;;;5062506;28;20040;-67
2023/06/24 10:27:18;;;;;;;4.65;3.65;;;37.40;47.90;;;;;;5063312;28;20032;-67
2023/06/24 10:29:51;;;;;;;4.25;3.50;;;35.20;51.50;;;;;;5061435;28;20025;-67
2023/06/24 10:32:18;;;;;;;5.18;3.60;;;33.40;54.70;;;;;;5063746;28;20060;-67
2023/06/24 10:34:53;;;;;;;5.97;3.70;;;32.50;54.40;;;;;;5048694;28;20057;-68
2023/06/24 10:37:21;;;;;;;6.80;4.32;;;32.10;56.60;;;;;;5061040;28;20035;-68
2023/06/24 10:39:58;;;;;;;6.25;3.15;;;31.90;57.20;;;;;;5056793;28;20021;-68
2023/06/24 10:42:29;;;;;;;8.73;4.25;;;31.40;56.20;;;;;;5049232;28;20511;-68
2023/06/24 10:45:02;;;;;;;4.88;3.60;;;31.50;58.00;;;;;;5064320;28;20081;-68
2023/06/24 10:47:29;;;;;;;5.90;3.97;;;30.80;57.20;;;;;;5060463;28;20028;-68
2023/06/24 10:49:55;;;;;;;3.78;3.33;;;30.80;55.60;;;;;;5055778;28;20039;-68
2023/06/24 10:52:22;;;;;;;4.28;3.88;;;30.10;55.50;;;;;;5040559;28;20037;-69
2023/06/24 10:54:49;;;;;;;4.32;3.80;;;30.40;56.70;;;;;;5064452;28;20504;-68
2023/06/24 10:57:20;;;;;;;4.05;3.65;;;30.50;57.80;;;;;;5058112;28;20028;-68
2023/06/24 10:59:49;;;;;;;5.18;3.78;;;30.80;57.30;;;;;;5061081;28;20036;-68
2023/06/24 11:02:19;;;;;;;6.70;3.70;;;30.40;57.50;;;;;;5061593;28;20102;-68
2023/06/24 11:04:57;;;;;;;6.47;3.70;;;30.30;56.30;;;;;;5058378;28;20035;-68
2023/06/24 11:07:25;;;;;;;4.90;3.65;;;30.10;54.60;;;;;;5058134;28;20515;-68
2023/06/24 11:09:52;;;;;;;6.03;4.40;;;29.90;58.80;;;;;;5061616;28;20040;-67
2023/06/24 11:12:18;;;;;;;4.30;3.90;;;29.90;58.00;;;;;;5058765;28;20061;-68
2023/06/24 11:14:45;;;;;;;4.88;3.88;;;30.40;57.80;;;;;;5064233;28;20036;-67
2023/06/24 11:17:10;;;;;;;5.18;3.40;;;30.50;57.70;;;;;;5061979;28;20028;-67
2023/06/24 11:19:39;;;;;;;5.43;3.97;;;30.20;58.00;;;;;;5061155;28;20464;-67
2023/06/24 11:22:06;;;;;;;6.88;3.55;;;29.90;59.10;;;;;;5057417;28;20025;-67
2023/06/24 11:24:32;;;;;;;5.65;3.47;;;30.00;58.40;;;;;;5062290;28;20351;-67
2023/06/24 11:26:58;;;;;;;5.93;5.07;;;29.80;59.30;;;;;;5064004;28;20025;-67
2023/06/24 11:29:24;;;;;;;8.65;4.53;;;30.10;61.10;;;;;;5060224;28;20039;-67
2023/06/24 11:31:50;;;;;;;;;;;30.30;60.10;;;;;;5062435;28;20044;-66
2023/06/24 11:34:16;;;;;;;5.13;4.63;;;30.30;61.50;;;;;;5063361;28;19935;-67
2023/06/24 11:36:42;;;;;;;7.22;4.28;;;30.20;59.70;;;;;;5067973;28;20510;-67
2023/06/24 11:39:07;;;;;;;7.10;4.35;;;30.20;59.10;;;;;;5058777;28;20036;-67
2023/06/24 11:41:33;;;;;;;4.35;3.80;;;30.50;61.90;;;;;;5062199;28;20043;-67
2023/06/24 11:43:59;;;;;;;4.75;3.60;;;30.60;60.00;;;;;;5058983;28;20037;-67
2023/06/24 11:46:25;;;;;;;;;;;30.20;57.50;;;;;;5061586;28;20501;-67
2023/06/24 11:48:51;;;;;;;6.45;3.63;;;29.90;60.60;;;;;;5058987;28;20631;-67
2023/06/24 11:51:17;;;;;;;4.75;4.28;;;30.00;58.80;;;;;;5057656;28;20037;-67
2023/06/24 11:53:45;;;;;;;7.43;3.80;;;30.10;62.00;;;;;;5061273;28;20051;-67
2023/06/24 11:56:11;;;;;;;4.90;3.80;;;29.50;59.50;;;;;;5062265;28;20138;-67
2023/06/24 11:58:37;;;;;;;3.83;3.40;;;30.00;61.80;;;;;;5053727;28;20027;-67
2023/06/24 12:01:06;;;;;;;5.28;4.10;;;30.20;61.60;;;;;;5061063;28;20063;-67
2023/06/24 12:03:33;;;;;;;5.88;4.00;;;29.90;56.40;;;;;;5062999;28;20363;-67
2023/06/24 12:05:59;;;;;;;5.90;3.80;;;29.20;60.40;;;;;;5064196;28;20028;-67
2023/06/24 12:08:24;;;;;;;5.30;4.00;;;29.40;62.40;;;;;;5057255;28;20024;-67
2023/06/24 12:10:52;;;;;;;5.50;3.90;;;29.90;62.60;;;;;;5056160;28;20052;-67
2023/06/24 12:13:18;;;;;;;5.10;3.88;;;29.60;58.80;;;;;;5062842;28;20074;-68
2023/06/24 12:15:44;;;;;;;3.53;3.22;;;30.00;60.90;;;;;;5061394;28;20033;-68
2023/06/24 12:18:09;;;;;;;5.65;3.05;;;29.80;63.10;;;;;;5060614;28;20393;-66
2023/06/24 12:20:36;;;;;;;216.90;42.00;;;30.00;61.30;;;;;;5061340;28;20028;-68
2023/06/24 12:23:05;;;;;;;386.83;91.72;;;29.80;61.60;;;;;;5061281;28;20174;-68
2023/06/24 12:25:31;;;;;;;266.08;61.22;;;30.00;60.70;;;;;;5054969;28;20056;-68
2023/06/24 12:27:57;;;;;;;410.38;103.38;;;30.10;61.90;;;;;;5060082;28;20066;-68
2023/06/24 12:30:22;;;;;;;209.45;48.13;;;30.20;62.90;;;;;;5061797;28;20045;-68
2023/06/24 12:32:50;;;;;;;44.25;13.95;;;30.20;62.60;;;;;;5038716;28;20036;-68
2023/06/24 12:35:16;;;;;;;274.45;76.20;;;30.10;60.80;;;;;;5059672;28;20056;-68
2023/06/24 12:37:42;;;;;;;22.70;9.65;;;30.10;62.90;;;;;;5043233;28;20484;-68
2023/06/24 12:40:08;;;;;;;22.15;7.93;;;30.20;60.40;;;;;;5064419;28;20028;-68
2023/06/24 12:42:34;;;;;;;13.02;5.88;;;30.10;61.90;;;;;;5060080;28;20025;-68
2023/06/24 12:45:00;;;;;;;19.98;7.78;;;30.10;58.20;;;;;;5057056;28;20547;-68
2023/06/24 12:47:25;;;;;;;;;;;30.10;58.30;;;;;;5058803;28;20029;-68